sensor_id;sensor_type;location;lat;lon;timestamp;pressure;altitude;pressure_sealevel;temperature
77728;BMP280;68312;53.502;10.030;2023-12-20T00:00:15;100792.09;;;6.20
77728;BMP280;68312;53.502;10.030;2023-12-20T00:00:46;100786.16;;;6.14
77728;BMP280;68312;53.502;10.030;2023-12-20T00:01:16;100784.69;;;6.08
77728;BMP280;68312;53.502;10.030;2023-12-20T00:01:47;100782.59;;;6.10
77728;BMP280;68312;53.502;10.030;2023-12-20T00:02:17;100788.22;;;6.17
77728;BMP280;68312;53.502;10.030;2023-12-20T00:02:48;100785.47;;;6.27
77728;BMP280;68312;53.502;10.030;2023-12-20T00:03:18;100783.84;;;6.31
77728;BMP280;68312;53.502;10.030;2023-12-20T00:03:49;100784.41;;;6.28
77728;BMP280;68312;53.502;10.030;2023-12-20T00:04:19;100784.78;;;6.21
77728;BMP280;68312;53.502;10.030;2023-12-20T00:04:50;100785.38;;;6.14
77728;BMP280;68312;53.502;10.030;2023-12-20T00:05:20;100790.69;;;6.09
77728;BMP280;68312;53.502;10.030;2023-12-20T00:05:51;100789.13;;;6.08
77728;BMP280;68312;53.502;10.030;2023-12-20T00:06:21;100786.28;;;6.04
77728;BMP280;68312;53.502;10.030;2023-12-20T00:06:52;100780.50;;;6.07
77728;BMP280;68312;53.502;10.030;2023-12-20T00:07:22;100793.88;;;6.01
77728;BMP280;68312;53.502;10.030;2023-12-20T00:07:53;100795.00;;;5.95
77728;BMP280;68312;53.502;10.030;2023-12-20T00:08:23;100786.97;;;5.91
77728;BMP280;68312;53.502;10.030;2023-12-20T00:08:54;100789.06;;;5.89
77728;BMP280;68312;53.502;10.030;2023-12-20T00:09:24;100775.81;;;5.86
77728;BMP280;68312;53.502;10.030;2023-12-20T00:09:55;100777.94;;;5.84
77728;BMP280;68312;53.502;10.030;2023-12-20T00:10:25;100781.38;;;5.80
77728;BMP280;68312;53.502;10.030;2023-12-20T00:10:56;100782.69;;;5.77
77728;BMP280;68312;53.502;10.030;2023-12-20T00:11:26;100771.00;;;5.75
77728;BMP280;68312;53.502;10.030;2023-12-20T00:11:57;100778.31;;;5.73
77728;BMP280;68312;53.502;10.030;2023-12-20T00:12:27;100778.91;;;5.70
77728;BMP280;68312;53.502;10.030;2023-12-20T00:12:58;100775.72;;;5.73
77728;BMP280;68312;53.502;10.030;2023-12-20T00:13:28;100769.72;;;5.72
77728;BMP280;68312;53.502;10.030;2023-12-20T00:13:59;100764.97;;;5.79
77728;BMP280;68312;53.502;10.030;2023-12-20T00:14:29;100759.00;;;5.79
77728;BMP280;68312;53.502;10.030;2023-12-20T00:15:00;100752.94;;;5.83
77728;BMP280;68312;53.502;10.030;2023-12-20T00:15:30;100758.44;;;5.82
77728;BMP280;68312;53.502;10.030;2023-12-20T00:16:01;100754.50;;;5.84
77728;BMP280;68312;53.502;10.030;2023-12-20T00:16:31;100760.00;;;5.83
77728;BMP280;68312;53.502;10.030;2023-12-20T00:17:02;100761.28;;;5.80
77728;BMP280;68312;53.502;10.030;2023-12-20T00:17:32;100758.22;;;5.78
77728;BMP280;68312;53.502;10.030;2023-12-20T00:18:03;100759.25;;;5.77
77728;BMP280;68312;53.502;10.030;2023-12-20T00:18:34;100759.50;;;5.81
77728;BMP280;68312;53.502;10.030;2023-12-20T00:19:04;100753.72;;;5.84
77728;BMP280;68312;53.502;10.030;2023-12-20T00:19:34;100757.31;;;5.88
77728;BMP280;68312;53.502;10.030;2023-12-20T00:20:06;100753.38;;;5.90
77728;BMP280;68312;53.502;10.030;2023-12-20T00:20:37;100763.09;;;5.85
77728;BMP280;68312;53.502;10.030;2023-12-20T00:21:08;100760.81;;;5.78
77728;BMP280;68312;53.502;10.030;2023-12-20T00:21:38;100755.88;;;5.77
77728;BMP280;68312;53.502;10.030;2023-12-20T00:22:09;100757.16;;;5.79
77728;BMP280;68312;53.502;10.030;2023-12-20T00:22:39;100755.88;;;5.77
77728;BMP280;68312;53.502;10.030;2023-12-20T00:23:10;100756.66;;;5.77
77728;BMP280;68312;53.502;10.030;2023-12-20T00:23:40;100753.53;;;5.75
77728;BMP280;68312;53.502;10.030;2023-12-20T00:24:11;100761.44;;;5.70
77728;BMP280;68312;53.502;10.030;2023-12-20T00:24:41;100755.22;;;5.66
77728;BMP280;68312;53.502;10.030;2023-12-20T00:25:12;100760.16;;;5.68
77728;BMP280;68312;53.502;10.030;2023-12-20T00:25:42;100755.22;;;5.66
77728;BMP280;68312;53.502;10.030;2023-12-20T00:26:13;100754.41;;;5.71
77728;BMP280;68312;53.502;10.030;2023-12-20T00:26:43;100755.38;;;5.75
77728;BMP280;68312;53.502;10.030;2023-12-20T00:27:14;100751.78;;;5.71
77728;BMP280;68312;53.502;10.030;2023-12-20T00:27:44;100755.72;;;5.68
77728;BMP280;68312;53.502;10.030;2023-12-20T00:28:15;100750.56;;;5.63
77728;BMP280;68312;53.502;10.030;2023-12-20T00:28:45;100750.78;;;5.67
77728;BMP280;68312;53.502;10.030;2023-12-20T00:29:16;100747.91;;;5.68
77728;BMP280;68312;53.502;10.030;2023-12-20T00:29:46;100750.78;;;5.67
77728;BMP280;68312;53.502;10.030;2023-12-20T00:30:20;100751.56;;;5.67
77728;BMP280;68312;53.502;10.030;2023-12-20T00:30:50;100749.78;;;5.63
77728;BMP280;68312;53.502;10.030;2023-12-20T00:31:20;100746.66;;;5.61
77728;BMP280;68312;53.502;10.030;2023-12-20T00:31:51;100744.06;;;5.61
77728;BMP280;68312;53.502;10.030;2023-12-20T00:32:21;100745.38;;;5.63
77728;BMP280;68312;53.502;10.030;2023-12-20T00:32:52;100741.28;;;5.76
77728;BMP280;68312;53.502;10.030;2023-12-20T00:33:22;100746.63;;;5.89
77728;BMP280;68312;53.502;10.030;2023-12-20T00:33:53;100741.84;;;5.96
77728;BMP280;68312;53.502;10.030;2023-12-20T00:34:24;100746.56;;;5.94
77728;BMP280;68312;53.502;10.030;2023-12-20T00:34:55;100752.53;;;5.94
77728;BMP280;68312;53.502;10.030;2023-12-20T00:35:25;100748.91;;;5.90
77728;BMP280;68312;53.502;10.030;2023-12-20T00:35:56;100748.97;;;5.86
77728;BMP280;68312;53.502;10.030;2023-12-20T00:36:27;100749.06;;;5.81
77728;BMP280;68312;53.502;10.030;2023-12-20T00:36:57;100757.16;;;5.79
77728;BMP280;68312;53.502;10.030;2023-12-20T00:37:28;100751.38;;;5.82
77728;BMP280;68312;53.502;10.030;2023-12-20T00:37:59;100740.34;;;5.90
77728;BMP280;68312;53.502;10.030;2023-12-20T00:38:29;100745.81;;;5.88
77728;BMP280;68312;53.502;10.030;2023-12-20T00:39:00;100747.66;;;5.88
77728;BMP280;68312;53.502;10.030;2023-12-20T00:39:30;100745.03;;;5.88
77728;BMP280;68312;53.502;10.030;2023-12-20T00:40:01;100746.66;;;5.84
77728;BMP280;68312;53.502;10.030;2023-12-20T00:40:31;100749.84;;;5.81
77728;BMP280;68312;53.502;10.030;2023-12-20T00:41:02;100741.78;;;5.78
77728;BMP280;68312;53.502;10.030;2023-12-20T00:41:32;100736.38;;;5.74
77728;BMP280;68312;53.502;10.030;2023-12-20T00:42:03;100738.16;;;5.79
77728;BMP280;68312;53.502;10.030;2023-12-20T00:42:34;100738.09;;;5.84
77728;BMP280;68312;53.502;10.030;2023-12-20T00:43:08;100733.34;;;5.86
77728;BMP280;68312;53.502;10.030;2023-12-20T00:43:38;100734.88;;;5.87
77728;BMP280;68312;53.502;10.030;2023-12-20T00:44:09;100735.47;;;5.84
77728;BMP280;68312;53.502;10.030;2023-12-20T00:44:39;100736.81;;;5.81
77728;BMP280;68312;53.502;10.030;2023-12-20T00:45:10;100727.72;;;5.79
77728;BMP280;68312;53.502;10.030;2023-12-20T00:45:41;100731.25;;;5.88
77728;BMP280;68312;53.502;10.030;2023-12-20T00:46:11;100739.84;;;5.88
77728;BMP280;68312;53.502;10.030;2023-12-20T00:46:41;100732.25;;;5.91
77728;BMP280;68312;53.502;10.030;2023-12-20T00:47:12;100731.97;;;5.93
77728;BMP280;68312;53.502;10.030;2023-12-20T00:47:43;100728.06;;;5.90
77728;BMP280;68312;53.502;10.030;2023-12-20T00:48:13;100729.91;;;5.90
77728;BMP280;68312;53.502;10.030;2023-12-20T00:48:44;100737.22;;;5.88
77728;BMP280;68312;53.502;10.030;2023-12-20T00:49:15;100727.06;;;5.87
77728;BMP280;68312;53.502;10.030;2023-12-20T00:49:46;100734.34;;;5.89
77728;BMP280;68312;53.502;10.030;2023-12-20T00:50:16;100731.75;;;5.89
77728;BMP280;68312;53.502;10.030;2023-12-20T00:50:47;100721.81;;;5.91
77728;BMP280;68312;53.502;10.030;2023-12-20T00:51:17;100725.69;;;5.94
77728;BMP280;68312;53.502;10.030;2023-12-20T00:51:48;100735.34;;;5.93
77728;BMP280;68312;53.502;10.030;2023-12-20T00:52:20;100725.59;;;5.99
77728;BMP280;68312;53.502;10.030;2023-12-20T00:52:52;100728.03;;;5.95
77728;BMP280;68312;53.502;10.030;2023-12-20T00:53:24;100737.66;;;5.95
77728;BMP280;68312;53.502;10.030;2023-12-20T00:53:55;100729.38;;;5.93
77728;BMP280;68312;53.502;10.030;2023-12-20T00:54:25;100734.59;;;5.93
77728;BMP280;68312;53.502;10.030;2023-12-20T00:54:56;100732.75;;;5.93
77728;BMP280;68312;53.502;10.030;2023-12-20T00:55:26;100728.53;;;5.97
77728;BMP280;68312;53.502;10.030;2023-12-20T00:55:57;100720.38;;;5.99
77728;BMP280;68312;53.502;10.030;2023-12-20T00:56:28;100726.19;;;5.96
77728;BMP280;68312;53.502;10.030;2023-12-20T00:56:59;100728.69;;;6.06
77728;BMP280;68312;53.502;10.030;2023-12-20T00:57:29;100724.63;;;6.13
77728;BMP280;68312;53.502;10.030;2023-12-20T00:58:01;100720.28;;;6.09
77728;BMP280;68312;53.502;10.030;2023-12-20T00:58:31;100731.84;;;6.21
77728;BMP280;68312;53.502;10.030;2023-12-20T00:59:02;100727.03;;;6.28
77728;BMP280;68312;53.502;10.030;2023-12-20T00:59:32;100728.97;;;6.22
77728;BMP280;68312;53.502;10.030;2023-12-20T01:00:03;100735.72;;;6.23
77728;BMP280;68312;53.502;10.030;2023-12-20T01:00:35;100735.28;;;6.35
77728;BMP280;68312;53.502;10.030;2023-12-20T01:01:05;100731.91;;;6.34
77728;BMP280;68312;53.502;10.030;2023-12-20T01:01:36;100739.22;;;6.32
77728;BMP280;68312;53.502;10.030;2023-12-20T01:02:06;100743.69;;;6.32
77728;BMP280;68312;53.502;10.030;2023-12-20T01:02:37;100753.53;;;6.35
77728;BMP280;68312;53.502;10.030;2023-12-20T01:03:07;100740.69;;;6.38
77728;BMP280;68312;53.502;10.030;2023-12-20T01:03:38;100748.81;;;6.37
77728;BMP280;68312;53.502;10.030;2023-12-20T01:04:08;100748.69;;;6.47
77728;BMP280;68312;53.502;10.030;2023-12-20T01:04:40;100752.75;;;6.52
77728;BMP280;68312;53.502;10.030;2023-12-20T01:05:10;100747.63;;;6.48
77728;BMP280;68312;53.502;10.030;2023-12-20T01:05:41;100767.97;;;6.46
77728;BMP280;68312;53.502;10.030;2023-12-20T01:06:11;100770.41;;;6.42
77728;BMP280;68312;53.502;10.030;2023-12-20T01:06:41;100761.09;;;6.36
77728;BMP280;68312;53.502;10.030;2023-12-20T01:07:12;100762.34;;;6.39
77728;BMP280;68312;53.502;10.030;2023-12-20T01:07:42;100761.28;;;6.40
77728;BMP280;68312;53.502;10.030;2023-12-20T01:08:13;100764.41;;;6.42
77728;BMP280;68312;53.502;10.030;2023-12-20T01:08:43;100753.47;;;6.40
77728;BMP280;68312;53.502;10.030;2023-12-20T01:09:14;100748.41;;;6.48
77728;BMP280;68312;53.502;10.030;2023-12-20T01:09:45;100759.13;;;6.47
77728;BMP280;68312;53.502;10.030;2023-12-20T01:10:15;100751.44;;;6.37
77728;BMP280;68312;53.502;10.030;2023-12-20T01:10:47;100749.13;;;6.35
77728;BMP280;68312;53.502;10.030;2023-12-20T01:11:17;100753.03;;;6.33
77728;BMP280;68312;53.502;10.030;2023-12-20T01:11:48;100750.44;;;6.33
77728;BMP280;68312;53.502;10.030;2023-12-20T01:12:18;100752.22;;;6.37
77728;BMP280;68312;53.502;10.030;2023-12-20T01:12:50;100762.84;;;6.41
77728;BMP280;68312;53.502;10.030;2023-12-20T01:13:20;100757.88;;;6.39
77728;BMP280;68312;53.502;10.030;2023-12-20T01:13:51;100766.31;;;6.36
77728;BMP280;68312;53.502;10.030;2023-12-20T01:14:21;100762.00;;;6.27
77728;BMP280;68312;53.502;10.030;2023-12-20T01:14:52;100757.63;;;6.41
77728;BMP280;68312;53.502;10.030;2023-12-20T01:15:22;100767.00;;;6.42
77728;BMP280;68312;53.502;10.030;2023-12-20T01:15:53;100770.94;;;6.39
77728;BMP280;68312;53.502;10.030;2023-12-20T01:16:23;100770.25;;;6.34
77728;BMP280;68312;53.502;10.030;2023-12-20T01:16:54;100760.34;;;6.36
77728;BMP280;68312;53.502;10.030;2023-12-20T01:17:24;100765.53;;;6.36
77728;BMP280;68312;53.502;10.030;2023-12-20T01:17:55;100762.94;;;6.36
77728;BMP280;68312;53.502;10.030;2023-12-20T01:18:27;100759.84;;;6.34
77728;BMP280;68312;53.502;10.030;2023-12-20T01:18:58;100765.13;;;6.29
77728;BMP280;68312;53.502;10.030;2023-12-20T01:19:28;100761.88;;;6.19
77728;BMP280;68312;53.502;10.030;2023-12-20T01:19:59;100756.69;;;6.14
77728;BMP280;68312;53.502;10.030;2023-12-20T01:20:30;100764.25;;;6.15
77728;BMP280;68312;53.502;10.030;2023-12-20T01:21:02;100771.00;;;6.16
77728;BMP280;68312;53.502;10.030;2023-12-20T01:21:33;100767.13;;;6.14
77728;BMP280;68312;53.502;10.030;2023-12-20T01:22:04;100764.03;;;6.12
77728;BMP280;68312;53.502;10.030;2023-12-20T01:22:35;100760.22;;;6.04
77728;BMP280;68312;53.502;10.030;2023-12-20T01:23:05;100763.88;;;6.03
77728;BMP280;68312;53.502;10.030;2023-12-20T01:23:36;100765.38;;;6.09
77728;BMP280;68312;53.502;10.030;2023-12-20T01:24:06;100759.16;;;6.05
77728;BMP280;68312;53.502;10.030;2023-12-20T01:24:37;100756.34;;;6.02
77728;BMP280;68312;53.502;10.030;2023-12-20T01:25:07;100755.28;;;6.03
77728;BMP280;68312;53.502;10.030;2023-12-20T01:25:39;100758.31;;;6.10
77728;BMP280;68312;53.502;10.030;2023-12-20T01:26:09;100753.69;;;6.07
77728;BMP280;68312;53.502;10.030;2023-12-20T01:26:40;100751.13;;;6.02
77728;BMP280;68312;53.502;10.030;2023-12-20T01:27:10;100756.63;;;6.00
77728;BMP280;68312;53.502;10.030;2023-12-20T01:27:40;100756.13;;;5.98
77728;BMP280;68312;53.502;10.030;2023-12-20T01:28:11;100747.81;;;5.96
77728;BMP280;68312;53.502;10.030;2023-12-20T01:28:42;100748.78;;;6.00
77728;BMP280;68312;53.502;10.030;2023-12-20T01:29:13;100749.56;;;6.01
77728;BMP280;68312;53.502;10.030;2023-12-20T01:29:44;100743.94;;;5.94
77728;BMP280;68312;53.502;10.030;2023-12-20T01:30:14;100748.31;;;5.98
77728;BMP280;68312;53.502;10.030;2023-12-20T01:30:45;100746.44;;;5.99
77728;BMP280;68312;53.502;10.030;2023-12-20T01:31:15;100749.28;;;6.02
77728;BMP280;68312;53.502;10.030;2023-12-20T01:31:46;100739.91;;;6.01
77728;BMP280;68312;53.502;10.030;2023-12-20T01:32:16;100748.09;;;5.95
77728;BMP280;68312;53.502;10.030;2023-12-20T01:32:47;100755.97;;;5.90
77728;BMP280;68312;53.502;10.030;2023-12-20T01:33:17;100748.78;;;5.82
77728;BMP280;68312;53.502;10.030;2023-12-20T01:33:48;100762.09;;;5.81
77728;BMP280;68312;53.502;10.030;2023-12-20T01:34:18;100740.69;;;5.84
77728;BMP280;68312;53.502;10.030;2023-12-20T01:34:49;100749.66;;;5.96
77728;BMP280;68312;53.502;10.030;2023-12-20T01:35:19;100739.63;;;6.03
77728;BMP280;68312;53.502;10.030;2023-12-20T01:35:50;100737.91;;;5.98
77728;BMP280;68312;53.502;10.030;2023-12-20T01:36:20;100755.91;;;5.95
77728;BMP280;68312;53.502;10.030;2023-12-20T01:36:51;100754.94;;;5.91
77728;BMP280;68312;53.502;10.030;2023-12-20T01:37:21;100747.13;;;5.91
77728;BMP280;68312;53.502;10.030;2023-12-20T01:37:53;100751.03;;;5.88
77728;BMP280;68312;53.502;10.030;2023-12-20T01:38:27;100751.25;;;5.92
77728;BMP280;68312;53.502;10.030;2023-12-20T01:38:57;100744.22;;;5.92
77728;BMP280;68312;53.502;10.030;2023-12-20T01:39:28;100744.78;;;5.89
77728;BMP280;68312;53.502;10.030;2023-12-20T01:39:58;100751.88;;;5.84
77728;BMP280;68312;53.502;10.030;2023-12-20T01:40:29;100755.63;;;5.78
77728;BMP280;68312;53.502;10.030;2023-12-20T01:40:59;100752.84;;;5.88
77728;BMP280;68312;53.502;10.030;2023-12-20T01:41:30;100751.53;;;5.90
77728;BMP280;68312;53.502;10.030;2023-12-20T01:42:00;100749.41;;;5.92
77728;BMP280;68312;53.502;10.030;2023-12-20T01:42:31;100756.81;;;5.86
77728;BMP280;68312;53.502;10.030;2023-12-20T01:43:07;100749.56;;;5.83
77728;BMP280;68312;53.502;10.030;2023-12-20T01:43:39;100755.63;;;5.78
77728;BMP280;68312;53.502;10.030;2023-12-20T01:44:10;100753.31;;;5.72
77728;BMP280;68312;53.502;10.030;2023-12-20T01:44:40;100756.16;;;5.75
77728;BMP280;68312;53.502;10.030;2023-12-20T01:45:11;100738.56;;;5.86
77728;BMP280;68312;53.502;10.030;2023-12-20T01:45:41;100743.16;;;5.93
77728;BMP280;68312;53.502;10.030;2023-12-20T01:46:12;100747.13;;;5.91
77728;BMP280;68312;53.502;10.030;2023-12-20T01:46:42;100734.09;;;5.91
77728;BMP280;68312;53.502;10.030;2023-12-20T01:47:13;100742.44;;;5.88
77728;BMP280;68312;53.502;10.030;2023-12-20T01:47:44;100746.09;;;5.87
77728;BMP280;68312;53.502;10.030;2023-12-20T01:48:15;100745.81;;;5.88
77728;BMP280;68312;53.502;10.030;2023-12-20T01:48:48;100743.28;;;5.84
77728;BMP280;68312;53.502;10.030;2023-12-20T01:49:19;100738.28;;;5.87
77728;BMP280;68312;53.502;10.030;2023-12-20T01:49:50;100737.81;;;5.85
77728;BMP280;68312;53.502;10.030;2023-12-20T01:50:21;100729.22;;;5.85
77728;BMP280;68312;53.502;10.030;2023-12-20T01:50:52;100730.19;;;5.88
77728;BMP280;68312;53.502;10.030;2023-12-20T01:51:25;100728.81;;;5.96
77728;BMP280;68312;53.502;10.030;2023-12-20T01:51:57;100730.16;;;5.93
77728;BMP280;68312;53.502;10.030;2023-12-20T01:52:27;100718.72;;;5.89
77728;BMP280;68312;53.502;10.030;2023-12-20T01:53:00;100730.19;;;5.88
77728;BMP280;68312;53.502;10.030;2023-12-20T01:53:32;100735.88;;;5.90
77728;BMP280;68312;53.502;10.030;2023-12-20T01:54:03;100733.13;;;5.82
77728;BMP280;68312;53.502;10.030;2023-12-20T01:54:35;100727.88;;;5.87
77728;BMP280;68312;53.502;10.030;2023-12-20T01:55:06;100724.69;;;5.90
77728;BMP280;68312;53.502;10.030;2023-12-20T01:55:43;100718.94;;;5.93
77728;BMP280;68312;53.502;10.030;2023-12-20T01:56:15;100731.19;;;5.92
77728;BMP280;68312;53.502;10.030;2023-12-20T01:56:47;100729.22;;;5.85
77728;BMP280;68312;53.502;10.030;2023-12-20T01:57:20;100726.16;;;5.78
77728;BMP280;68312;53.502;10.030;2023-12-20T01:57:51;100732.94;;;5.79
77728;BMP280;68312;53.502;10.030;2023-12-20T01:58:22;100732.88;;;5.84
77728;BMP280;68312;53.502;10.030;2023-12-20T01:58:53;100722.94;;;5.86
77728;BMP280;68312;53.502;10.030;2023-12-20T01:59:26;100724.97;;;5.88
77728;BMP280;68312;53.502;10.030;2023-12-20T01:59:57;100728.06;;;5.90
77728;BMP280;68312;53.502;10.030;2023-12-20T02:00:28;100720.22;;;5.95
77728;BMP280;68312;53.502;10.030;2023-12-20T02:01:01;100721.97;;;6.00
77728;BMP280;68312;53.502;10.030;2023-12-20T02:01:32;100722.97;;;6.04
77728;BMP280;68312;53.502;10.030;2023-12-20T02:02:03;100726.84;;;6.06
77728;BMP280;68312;53.502;10.030;2023-12-20T02:02:34;100735.19;;;6.03
77728;BMP280;68312;53.502;10.030;2023-12-20T02:03:09;100726.56;;;6.08
77728;BMP280;68312;53.502;10.030;2023-12-20T02:03:41;100727.63;;;6.07
77728;BMP280;68312;53.502;10.030;2023-12-20T02:04:13;100735.34;;;5.93
77728;BMP280;68312;53.502;10.030;2023-12-20T02:04:44;100728.69;;;6.06
77728;BMP280;68312;53.502;10.030;2023-12-20T02:05:16;100727.34;;;6.08
77728;BMP280;68312;53.502;10.030;2023-12-20T02:05:47;100734.41;;;6.08
77728;BMP280;68312;53.502;10.030;2023-12-20T02:06:18;100731.00;;;6.07
77728;BMP280;68312;53.502;10.030;2023-12-20T02:06:54;100725.56;;;6.04
77728;BMP280;68312;53.502;10.030;2023-12-20T02:07:26;100720.38;;;5.99
77728;BMP280;68312;53.502;10.030;2023-12-20T02:07:58;100727.47;;;5.98
77728;BMP280;68312;53.502;10.030;2023-12-20T02:08:28;100729.22;;;6.03
77728;BMP280;68312;53.502;10.030;2023-12-20T02:08:59;100725.34;;;6.00
77728;BMP280;68312;53.502;10.030;2023-12-20T02:09:30;100722.13;;;6.08
77728;BMP280;68312;53.502;10.030;2023-12-20T02:10:01;100725.72;;;6.12
77728;BMP280;68312;53.502;10.030;2023-12-20T02:10:32;100729.00;;;6.18
77728;BMP280;68312;53.502;10.030;2023-12-20T02:11:03;100731.63;;;6.18
77728;BMP280;68312;53.502;10.030;2023-12-20T02:11:34;100726.69;;;6.16
77728;BMP280;68312;53.502;10.030;2023-12-20T02:12:06;100719.53;;;6.08
77728;BMP280;68312;53.502;10.030;2023-12-20T02:12:36;100721.41;;;6.03
77728;BMP280;68312;53.502;10.030;2023-12-20T02:13:07;100725.06;;;6.02
77728;BMP280;68312;53.502;10.030;2023-12-20T02:13:37;100724.28;;;6.01
77728;BMP280;68312;53.502;10.030;2023-12-20T02:14:08;100711.84;;;5.98
77728;BMP280;68312;53.502;10.030;2023-12-20T02:14:38;100724.78;;;6.03
77728;BMP280;68312;53.502;10.030;2023-12-20T02:15:09;100722.13;;;6.08
77728;BMP280;68312;53.502;10.030;2023-12-20T02:15:40;100724.22;;;6.06
77728;BMP280;68312;53.502;10.030;2023-12-20T02:16:13;100723.81;;;5.99
77728;BMP280;68312;53.502;10.030;2023-12-20T02:16:44;100722.59;;;5.92
77728;BMP280;68312;53.502;10.030;2023-12-20T02:17:15;100726.47;;;5.94
77728;BMP280;68312;53.502;10.030;2023-12-20T02:17:47;100725.44;;;5.95
77728;BMP280;68312;53.502;10.030;2023-12-20T02:18:18;100725.13;;;5.97
77728;BMP280;68312;53.502;10.030;2023-12-20T02:18:49;100716.44;;;6.01
77728;BMP280;68312;53.502;10.030;2023-12-20T02:19:19;100713.81;;;6.06
77728;BMP280;68312;53.502;10.030;2023-12-20T02:19:50;100711.75;;;6.03
77728;BMP280;68312;53.502;10.030;2023-12-20T02:20:21;100710.94;;;6.08
77728;BMP280;68312;53.502;10.030;2023-12-20T02:20:51;100708.38;;;6.03
77728;BMP280;68312;53.502;10.030;2023-12-20T02:21:25;100715.69;;;6.01
77728;BMP280;68312;53.502;10.030;2023-12-20T02:22:10;100712.41;;;5.95
77728;BMP280;68312;53.502;10.030;2023-12-20T02:22:41;100707.78;;;5.88
77728;BMP280;68312;53.502;10.030;2023-12-20T02:23:12;100705.44;;;5.86
77728;BMP280;68312;53.502;10.030;2023-12-20T02:23:42;100707.28;;;5.86
77728;BMP280;68312;53.502;10.030;2023-12-20T02:24:13;100696.81;;;5.90
77728;BMP280;68312;53.502;10.030;2023-12-20T02:24:43;100705.41;;;5.91
77728;BMP280;68312;53.502;10.030;2023-12-20T02:25:14;100701.50;;;5.88
77728;BMP280;68312;53.502;10.030;2023-12-20T02:25:45;100702.31;;;5.89
77728;BMP280;68312;53.502;10.030;2023-12-20T02:26:16;100710.34;;;5.92
77728;BMP280;68312;53.502;10.030;2023-12-20T02:26:46;100696.19;;;5.98
77728;BMP280;68312;53.502;10.030;2023-12-20T02:27:18;100702.94;;;5.99
77728;BMP280;68312;53.502;10.030;2023-12-20T02:27:50;100703.50;;;5.96
77728;BMP280;68312;53.502;10.030;2023-12-20T02:28:21;100705.63;;;5.94
77728;BMP280;68312;53.502;10.030;2023-12-20T02:28:52;100698.09;;;5.93
77728;BMP280;68312;53.502;10.030;2023-12-20T02:29:23;100702.94;;;5.99
77728;BMP280;68312;53.502;10.030;2023-12-20T02:29:54;100703.88;;;6.08
77728;BMP280;68312;53.502;10.030;2023-12-20T02:30:24;100697.66;;;6.04
77728;BMP280;68312;53.502;10.030;2023-12-20T02:30:55;100699.06;;;5.97
77728;BMP280;68312;53.502;10.030;2023-12-20T02:31:25;100700.72;;;5.93
77728;BMP280;68312;53.502;10.030;2023-12-20T02:31:56;100699.78;;;5.84
77728;BMP280;68312;53.502;10.030;2023-12-20T02:32:27;100705.19;;;5.88
77728;BMP280;68312;53.502;10.030;2023-12-20T02:32:59;100700.41;;;5.94
77728;BMP280;68312;53.502;10.030;2023-12-20T02:33:31;100704.38;;;6.10
77728;BMP280;68312;53.502;10.030;2023-12-20T02:34:01;100698.28;;;6.15
77728;BMP280;68312;53.502;10.030;2023-12-20T02:34:32;100696.81;;;6.09
77728;BMP280;68312;53.502;10.030;2023-12-20T02:35:02;100702.63;;;6.06
77728;BMP280;68312;53.502;10.030;2023-12-20T02:35:33;100702.38;;;6.02
77728;BMP280;68312;53.502;10.030;2023-12-20T02:36:04;100702.75;;;5.96
77728;BMP280;68312;53.502;10.030;2023-12-20T02:36:34;100690.56;;;5.91
77728;BMP280;68312;53.502;10.030;2023-12-20T02:37:05;100707.09;;;6.00
77728;BMP280;68312;53.502;10.030;2023-12-20T02:37:35;100711.59;;;5.95
77728;BMP280;68312;53.502;10.030;2023-12-20T02:38:06;100700.28;;;6.04
77728;BMP280;68312;53.502;10.030;2023-12-20T02:38:36;100702.81;;;6.09
77728;BMP280;68312;53.502;10.030;2023-12-20T02:39:07;100699.72;;;6.07
77728;BMP280;68312;53.502;10.030;2023-12-20T02:39:38;100697.03;;;6.12
77728;BMP280;68312;53.502;10.030;2023-12-20T02:40:08;100697.97;;;6.21
77728;BMP280;68312;53.502;10.030;2023-12-20T02:40:40;100702.69;;;6.19
77728;BMP280;68312;53.502;10.030;2023-12-20T02:41:11;100708.44;;;6.16
77728;BMP280;68312;53.502;10.030;2023-12-20T02:41:41;100704.56;;;6.14
77728;BMP280;68312;53.502;10.030;2023-12-20T02:42:11;100704.78;;;6.17
77728;BMP280;68312;53.502;10.030;2023-12-20T02:42:42;100705.34;;;6.14
77728;BMP280;68312;53.502;10.030;2023-12-20T02:43:13;100710.06;;;6.12
77728;BMP280;68312;53.502;10.030;2023-12-20T02:43:43;100704.84;;;6.12
77728;BMP280;68312;53.502;10.030;2023-12-20T02:44:14;100708.44;;;6.16
77728;BMP280;68312;53.502;10.030;2023-12-20T02:44:44;100704.91;;;6.07
77728;BMP280;68312;53.502;10.030;2023-12-20T02:45:15;100709.09;;;6.08
77728;BMP280;68312;53.502;10.030;2023-12-20T02:45:45;100705.91;;;6.11
77728;BMP280;68312;53.502;10.030;2023-12-20T02:46:16;100702.53;;;6.11
77728;BMP280;68312;53.502;10.030;2023-12-20T02:46:48;100705.91;;;6.11
77728;BMP280;68312;53.502;10.030;2023-12-20T02:47:18;100710.38;;;6.11
77728;BMP280;68312;53.502;10.030;2023-12-20T02:47:49;100705.50;;;6.04
77728;BMP280;68312;53.502;10.030;2023-12-20T02:48:19;100698.19;;;6.01
77728;BMP280;68312;53.502;10.030;2023-12-20T02:48:50;100706.25;;;6.05
77728;BMP280;68312;53.502;10.030;2023-12-20T02:49:20;100703.72;;;6.00
77728;BMP280;68312;53.502;10.030;2023-12-20T02:49:51;100694.16;;;5.95
77728;BMP280;68312;53.502;10.030;2023-12-20T02:50:23;100702.63;;;6.06
77728;BMP280;68312;53.502;10.030;2023-12-20T02:50:54;100700.28;;;6.04
77728;BMP280;68312;53.502;10.030;2023-12-20T02:51:24;100694.22;;;6.09
77728;BMP280;68312;53.502;10.030;2023-12-20T02:51:55;100695.50;;;6.11
77728;BMP280;68312;53.502;10.030;2023-12-20T02:52:25;100701.88;;;6.00
77728;BMP280;68312;53.502;10.030;2023-12-20T02:52:58;100703.72;;;6.00
77728;BMP280;68312;53.502;10.030;2023-12-20T02:53:28;100700.81;;;6.01
77728;BMP280;68312;53.502;10.030;2023-12-20T02:53:59;100695.81;;;6.05
77728;BMP280;68312;53.502;10.030;2023-12-20T02:54:29;100699.22;;;6.05
77728;BMP280;68312;53.502;10.030;2023-12-20T02:55:00;100706.53;;;6.03
77728;BMP280;68312;53.502;10.030;2023-12-20T02:55:30;100694.81;;;6.01